createdAt,value
2022-11-30T02:09:55.809Z,524.90
2022-11-30T02:18:52.576Z,548.30
2022-11-30T02:33:09.020Z,519.85
2022-11-30T02:35:40.969Z,523.22
2022-11-30T02:38:13.556Z,561.60
2022-11-30T02:40:43.070Z,513.72
2022-11-30T02:43:12.695Z,499.23
2022-11-30T02:50:28.144Z,516.25
2022-11-30T02:53:49.836Z,518.50
2022-11-30T02:56:43.316Z,537.25
2022-11-30T03:02:18.201Z,505.92
2022-11-30T03:04:50.838Z,509.25
2022-11-30T03:07:29.190Z,517.63
2022-11-30T03:10:29.461Z,478.50
2022-11-30T03:13:28.753Z,465.08
2022-11-30T03:16:03.778Z,501.77
2022-11-30T03:18:45.334Z,526.63
2022-11-30T03:21:19.393Z,504.75
2022-11-30T03:24:14.405Z,499.00
2022-11-30T03:27:07.312Z,481.80
2022-11-30T03:32:59.539Z,477.75
2022-11-30T03:36:00.101Z,523.17
2022-11-30T03:38:42.999Z,457.10
2022-11-30T03:41:30.674Z,464.40
2022-11-30T03:47:20.972Z,466.92
2022-11-30T03:49:53.484Z,498.83
2022-11-30T03:52:25.407Z,501.17
2022-11-30T03:55:05.017Z,527.13
2022-11-30T03:57:35.367Z,511.65
2022-11-30T04:00:22.047Z,482.90
2022-11-30T04:02:54.056Z,495.00
2022-11-30T04:05:32.828Z,520.88
2022-11-30T04:08:20.428Z,511.58
2022-11-30T04:11:09.281Z,497.23
2022-11-30T04:16:54.906Z,486.60
2022-11-30T04:19:40.750Z,492.65
2022-11-30T04:22:13.392Z,482.00
2022-11-30T04:24:43.688Z,496.30
2022-11-30T04:27:14.630Z,497.35
2022-11-30T04:29:43.195Z,501.08
2022-11-30T04:32:12.403Z,518.10
2022-11-30T04:34:42.680Z,513.90
2022-11-30T04:37:11.170Z,527.38
2022-11-30T04:42:47.038Z,610.40
2022-11-30T04:45:16.188Z,520.05
2022-11-30T04:47:45.042Z,519.35
2022-11-30T04:50:15.635Z,551.10
2022-11-30T04:52:44.724Z,483.60
2022-11-30T04:55:13.959Z,497.02
2022-11-30T04:57:47.340Z,499.05
2022-11-30T05:00:22.559Z,495.48
2022-11-30T05:09:01.388Z,501.55
2022-11-30T05:12:02.436Z,508.73
2022-11-30T05:14:31.173Z,488.08
2022-11-30T05:17:00.783Z,487.08
2022-11-30T05:19:32.350Z,493.02
2022-11-30T05:24:47.717Z,482.33
2022-11-30T05:27:22.357Z,510.05
2022-11-30T05:29:51.203Z,482.23
2022-11-30T05:32:19.611Z,484.70
2022-11-30T05:34:51.401Z,507.50
2022-11-30T05:37:20.310Z,536.03
2022-11-30T05:39:50.106Z,511.30
2022-11-30T05:42:18.440Z,481.42
2022-11-30T05:44:48.032Z,558.10
2022-11-30T05:47:16.941Z,528.55
2022-11-30T05:49:45.482Z,512.22
2022-11-30T05:52:13.961Z,499.73
2022-11-30T05:54:42.413Z,501.30
2022-11-30T05:57:12.463Z,520.95
2022-11-30T05:59:41.059Z,525.75
2022-11-30T06:02:10.052Z,570.38
2022-11-30T06:04:38.649Z,578.83
2022-11-30T06:07:11.645Z,542.15
2022-11-30T06:09:40.408Z,536.88
2022-11-30T06:12:09.484Z,576.33
2022-11-30T06:14:39.653Z,549.92
2022-11-30T06:17:08.393Z,533.22
2022-11-30T06:19:37.028Z,561.22
2022-11-30T06:22:05.677Z,511.63
2022-11-30T06:24:34.255Z,501.75
2022-11-30T06:27:02.714Z,534.55
2022-11-30T06:29:31.261Z,519.55
2022-11-30T06:32:01.242Z,610.53
2022-11-30T06:34:32.521Z,570.35
2022-11-30T06:37:01.051Z,605.50
2022-11-30T06:39:57.973Z,553.15
2022-11-30T06:42:19.610Z,574.05
2022-11-30T06:44:48.843Z,619.95
2022-11-30T06:47:21.286Z,541.67
2022-11-30T06:49:49.786Z,479.40
2022-11-30T06:52:18.254Z,538.60
2022-11-30T06:54:47.152Z,519.88
2022-11-30T06:57:16.066Z,524.17
2022-11-30T06:59:44.617Z,566.45
2022-11-30T07:02:18.932Z,496.80
2022-11-30T07:04:47.947Z,498.88
2022-11-30T07:07:16.701Z,476.50
2022-11-30T07:09:45.617Z,549.65
2022-11-30T07:12:14.105Z,495.35
2022-11-30T07:14:42.606Z,524.28
2022-11-30T07:17:11.065Z,493.02
2022-11-30T07:19:40.929Z,568.38
2022-11-30T07:22:09.842Z,567.50
2022-11-30T07:24:55.552Z,510.17
2022-11-30T07:27:24.072Z,470.15
2022-11-30T07:29:52.721Z,530.08
2022-11-30T07:32:21.302Z,592.38
2022-11-30T07:34:51.122Z,493.83
2022-11-30T07:37:19.777Z,589.80
2022-11-30T07:39:48.255Z,497.38
2022-11-30T07:42:17.735Z,512.80
2022-11-30T07:44:46.605Z,518.20
2022-11-30T07:47:15.197Z,596.75
2022-11-30T07:49:43.641Z,537.60
2022-11-30T07:52:13.484Z,498.80
2022-11-30T07:54:42.240Z,521.03
2022-11-30T07:57:10.724Z,492.27
2022-11-30T07:59:39.208Z,510.33
2022-11-30T08:02:10.368Z,519.60
2022-11-30T08:04:39.051Z,636.35
2022-11-30T08:07:07.542Z,534.22
2022-11-30T08:09:37.704Z,577.25
2022-11-30T08:12:06.611Z,493.55
2022-11-30T08:14:56.481Z,485.75
2022-11-30T08:17:23.404Z,489.50
2022-11-30T08:19:51.769Z,519.88
2022-11-30T08:22:20.248Z,479.95
2022-11-30T08:24:50.289Z,605.47
2022-11-30T08:27:19.840Z,493.27
2022-11-30T08:29:48.326Z,489.08
2022-11-30T08:32:16.778Z,529.88
2022-11-30T08:34:45.387Z,508.02
2022-11-30T08:37:14.094Z,493.00
2022-11-30T08:39:42.598Z,553.50
2022-11-30T08:42:12.424Z,443.58
2022-11-30T08:44:41.629Z,486.17
2022-11-30T08:47:10.243Z,382.08
2022-11-30T08:49:38.823Z,421.38
2022-11-30T08:52:22.399Z,455.15
2022-11-30T08:54:51.458Z,489.92
2022-11-30T08:57:22.501Z,340.45
2022-11-30T08:59:51.133Z,375.95
2022-11-30T09:02:20.632Z,428.13
2022-11-30T09:04:51.300Z,368.50
2022-11-30T09:07:20.035Z,443.02
2022-11-30T09:09:49.001Z,386.52
2022-11-30T09:12:17.503Z,349.38
2022-11-30T09:14:53.994Z,352.73
2022-11-30T09:17:25.924Z,362.90
2022-11-30T09:19:54.992Z,328.50
2022-11-30T09:22:23.334Z,436.33
2022-11-30T09:24:52.133Z,397.85
2022-11-30T09:27:20.559Z,435.50
2022-11-30T09:29:50.376Z,406.85
2022-11-30T09:32:18.775Z,336.23
2022-11-30T09:34:47.986Z,462.80
2022-11-30T09:37:18.497Z,398.05
2022-11-30T09:39:46.932Z,343.65
2022-11-30T09:42:26.291Z,388.50
2022-11-30T09:45:02.698Z,349.40
2022-11-30T09:47:44.290Z,333.50
2022-11-30T09:50:15.614Z,332.80
2022-11-30T09:52:46.081Z,467.15
2022-11-30T09:55:19.105Z,333.80
2022-11-30T09:57:50.596Z,341.17
2022-11-30T10:00:22.297Z,372.90
2022-11-30T10:02:51.985Z,323.33
2022-11-30T10:05:22.809Z,480.23
2022-11-30T10:08:04.227Z,352.58
2022-11-30T10:10:37.565Z,391.15
2022-11-30T10:13:18.814Z,333.13
2022-11-30T10:15:58.909Z,342.90
2022-11-30T10:18:34.409Z,356.33
2022-11-30T10:21:12.331Z,348.30
2022-11-30T10:23:53.912Z,392.23
2022-11-30T10:26:28.372Z,404.55
2022-11-30T10:29:00.214Z,349.48
2022-11-30T10:31:31.539Z,414.00
2022-11-30T10:34:06.390Z,420.17
2022-11-30T10:36:38.929Z,340.50
2022-11-30T10:39:15.487Z,499.48
2022-11-30T10:41:47.731Z,349.23
2022-11-30T10:44:18.645Z,353.70
2022-11-30T10:46:57.297Z,359.33
2022-11-30T10:49:29.542Z,309.65
2022-11-30T10:52:02.234Z,325.55
2022-11-30T10:54:31.906Z,303.15
2022-11-30T10:57:02.126Z,278.02
2022-11-30T10:59:40.037Z,513.00
2022-11-30T11:02:41.479Z,298.27
2022-11-30T11:05:21.458Z,469.90
2022-11-30T11:08:04.317Z,268.23
2022-11-30T11:10:37.740Z,265.65
2022-11-30T11:13:06.772Z,309.42
2022-11-30T11:15:36.711Z,278.08
2022-11-30T11:18:23.717Z,515.30
2022-11-30T11:21:06.129Z,304.30
2022-11-30T11:23:37.922Z,276.30
2022-11-30T11:26:07.464Z,353.77
2022-11-30T11:28:37.439Z,264.75
2022-11-30T11:31:19.119Z,253.23
2022-11-30T11:33:55.638Z,265.90
2022-11-30T11:36:29.031Z,202.38
2022-11-30T11:38:57.555Z,161.25
2022-11-30T11:41:27.854Z,254.52
2022-11-30T11:44:03.492Z,254.85
2022-11-30T11:46:33.232Z,212.55
2022-11-30T11:49:05.522Z,230.00
2022-11-30T11:51:35.485Z,280.27
2022-11-30T11:54:10.370Z,228.27
2022-11-30T11:56:39.434Z,279.63
2022-11-30T11:59:16.330Z,241.88
2022-11-30T12:01:52.009Z,363.70
2022-11-30T12:04:41.307Z,463.50
2022-11-30T12:07:18.110Z,247.93
2022-11-30T12:09:59.132Z,330.48
2022-11-30T12:12:27.656Z,252.63
2022-11-30T12:14:57.529Z,220.13
2022-11-30T12:17:34.326Z,302.90
2022-11-30T12:20:11.655Z,264.83
2022-11-30T12:22:54.833Z,323.00
2022-11-30T12:25:26.524Z,339.40
2022-11-30T12:28:02.771Z,307.27
2022-11-30T12:30:37.079Z,306.63
2022-11-30T12:33:14.326Z,237.73
2022-11-30T12:35:52.455Z,214.32
2022-11-30T12:38:30.347Z,314.63
2022-11-30T12:41:08.786Z,254.65
2022-11-30T12:43:49.804Z,223.57
2022-11-30T12:46:25.736Z,306.83
2022-11-30T12:49:12.265Z,324.17
2022-11-30T12:51:44.614Z,236.27
2022-11-30T12:54:18.556Z,381.35
2022-11-30T12:56:51.580Z,219.15
2022-11-30T12:59:44.639Z,416.98
2022-11-30T13:03:01.527Z,224.50
2022-11-30T13:05:41.620Z,279.65
2022-11-30T13:08:25.875Z,208.68
2022-11-30T13:10:57.820Z,197.85
2022-11-30T13:13:47.104Z,250.20
2022-11-30T13:16:15.765Z,197.80
2022-11-30T13:21:43.464Z,246.45
2022-11-30T13:24:18.259Z,220.82
2022-11-30T13:26:52.053Z,201.65
2022-11-30T13:29:56.048Z,254.35
2022-11-30T13:35:46.511Z,303.88
2022-11-30T13:41:10.418Z,372.23
2022-11-30T13:43:43.360Z,213.00
2022-11-30T13:46:16.754Z,317.73
2022-11-30T13:48:46.605Z,459.75
2022-11-30T13:51:18.297Z,202.70
2022-11-30T13:53:46.748Z,270.95
2022-11-30T13:56:36.983Z,239.00
2022-11-30T13:59:41.248Z,348.10
2022-11-30T14:02:59.086Z,343.83
2022-11-30T14:05:38.879Z,309.23
2022-11-30T14:08:19.215Z,385.85
2022-11-30T14:10:48.570Z,323.27
2022-11-30T14:13:31.363Z,359.00
2022-11-30T14:16:02.610Z,382.63
2022-11-30T14:18:48.857Z,299.67
2022-11-30T14:21:25.426Z,549.92
2022-11-30T14:23:59.198Z,412.38
2022-11-30T14:26:31.648Z,412.55
2022-11-30T14:29:05.394Z,342.08
2022-11-30T14:31:38.829Z,420.17
2022-11-30T14:34:11.786Z,359.48
2022-11-30T14:36:45.151Z,393.58
2022-11-30T14:39:29.201Z,316.23
2022-11-30T14:41:57.770Z,391.00
2022-11-30T14:44:45.428Z,360.38
2022-11-30T14:47:24.139Z,380.42
2022-11-30T14:53:20.387Z,484.50
2022-11-30T14:55:52.481Z,356.15
2022-11-30T14:58:26.093Z,355.30
2022-11-30T15:00:57.324Z,371.42
2022-11-30T15:03:28.379Z,350.90
2022-11-30T15:05:58.590Z,539.90
2022-11-30T15:08:34.127Z,416.52
2022-11-30T15:11:06.122Z,373.77
2022-11-30T15:13:34.726Z,504.20
2022-11-30T15:16:09.557Z,390.05
2022-11-30T15:18:41.299Z,351.58
2022-11-30T15:21:15.551Z,365.48
2022-11-30T15:23:49.417Z,429.15
2022-11-30T15:26:23.775Z,368.70
2022-11-30T15:28:56.797Z,413.10
2022-11-30T15:31:27.578Z,461.50
2022-11-30T15:33:56.120Z,360.52
2022-11-30T15:36:33.554Z,389.50
2022-11-30T15:39:25.430Z,414.83
2022-11-30T15:44:47.622Z,372.88
2022-11-30T15:47:29.194Z,409.88
2022-11-30T15:50:01.136Z,474.33
2022-11-30T15:52:30.820Z,395.00
2022-11-30T15:55:17.107Z,332.05
2022-11-30T15:58:02.828Z,331.42
2022-11-30T16:00:31.391Z,344.83
2022-11-30T16:03:10.575Z,336.45
2022-11-30T16:05:57.965Z,404.77
2022-11-30T16:08:26.477Z,469.38
2022-11-30T16:10:55.116Z,399.58
2022-11-30T16:13:24.119Z,329.63
2022-11-30T16:15:53.924Z,320.98
2022-11-30T16:18:25.133Z,393.50
2022-11-30T16:20:55.459Z,346.42
2022-11-30T16:23:23.932Z,387.45
2022-11-30T16:25:52.591Z,466.13
2022-11-30T16:28:22.093Z,463.17
2022-11-30T16:30:51.102Z,397.35
2022-11-30T16:33:20.936Z,353.20
2022-11-30T16:35:54.817Z,350.60
2022-11-30T16:38:24.295Z,516.28
2022-11-30T16:40:54.058Z,331.73
2022-11-30T16:46:34.241Z,410.15
2022-11-30T16:49:06.222Z,579.38
2022-11-30T16:51:37.439Z,345.48
2022-11-30T16:54:08.498Z,350.45
2022-11-30T17:05:44.528Z,336.48
2022-11-30T17:08:27.653Z,397.20
2022-11-30T17:10:56.431Z,624.08
2022-11-30T17:13:25.215Z,374.95
2022-11-30T17:15:53.731Z,411.20
2022-11-30T17:18:22.206Z,499.73
2022-11-30T17:20:51.001Z,401.38
2022-11-30T17:23:20.961Z,373.25
2022-11-30T17:25:49.403Z,452.42
2022-11-30T17:28:17.923Z,419.67
2022-11-30T17:30:46.484Z,500.58
2022-11-30T17:33:15.292Z,388.23
2022-11-30T17:35:43.846Z,383.35
2022-11-30T17:38:15.200Z,426.83
2022-11-30T17:41:04.904Z,393.65
2022-11-30T17:43:34.155Z,329.60
2022-11-30T17:46:07.192Z,382.75
2022-11-30T17:48:36.150Z,507.45
2022-11-30T17:51:05.153Z,366.70
2022-11-30T17:53:34.484Z,426.08
2022-11-30T17:56:06.338Z,470.38
2022-11-30T17:58:38.962Z,480.45
2022-11-30T18:01:14.361Z,342.25
2022-11-30T18:03:44.197Z,383.60
2022-11-30T18:06:15.961Z,344.55
2022-11-30T18:08:45.186Z,352.92
2022-11-30T18:11:16.777Z,373.42
2022-11-30T18:13:45.376Z,365.83
2022-11-30T18:16:15.752Z,397.67
2022-11-30T18:18:48.337Z,361.15
2022-11-30T18:21:19.484Z,332.02
2022-11-30T18:23:48.471Z,419.50
2022-11-30T18:26:20.073Z,366.75
2022-11-30T18:28:52.107Z,386.45
2022-11-30T18:31:20.704Z,384.75
2022-11-30T18:41:34.651Z,335.55
2022-11-30T18:44:03.108Z,383.17
2022-11-30T18:46:32.783Z,357.35
2022-11-30T19:00:39.270Z,557.38
2022-11-30T19:03:08.325Z,338.40
2022-11-30T19:05:40.484Z,365.38
2022-11-30T19:08:11.585Z,370.80
2022-11-30T19:10:41.327Z,360.08
2022-11-30T19:13:29.546Z,358.58
2022-11-30T19:16:02.958Z,345.38
2022-11-30T19:18:31.664Z,364.75
2022-11-30T19:21:14.836Z,350.50
2022-11-30T20:29:26.318Z,254.68
2022-11-30T20:31:55.311Z,287.42
2022-11-30T20:34:27.477Z,289.17
2022-11-30T20:36:59.854Z,281.77
2022-11-30T20:39:28.762Z,291.27
2022-11-30T20:41:57.391Z,291.60
2022-11-30T20:44:27.426Z,272.55
2022-11-30T20:47:00.439Z,272.50
2022-11-30T20:49:29.211Z,276.23
2022-11-30T20:51:57.856Z,286.52
2022-11-30T20:54:29.962Z,369.52
2022-11-30T20:56:58.932Z,299.45
2022-11-30T20:59:29.078Z,276.80
2022-11-30T21:01:58.237Z,288.88
2022-11-30T21:04:27.705Z,271.25
2022-11-30T21:07:02.749Z,372.65
2022-11-30T21:09:34.771Z,308.77
2022-11-30T21:12:21.259Z,296.50
2022-11-30T21:14:51.701Z,313.88
2022-11-30T21:17:24.874Z,298.92
2022-11-30T21:19:53.998Z,254.25
2022-11-30T21:22:46.686Z,277.95
2022-11-30T21:25:18.545Z,317.20
2022-11-30T21:27:52.044Z,227.88
2022-11-30T21:30:25.493Z,282.55
2022-11-30T21:32:58.766Z,293.10
2022-11-30T21:35:51.540Z,289.85
2022-11-30T21:38:20.647Z,295.15
2022-11-30T21:40:56.198Z,298.02
2022-11-30T21:43:25.353Z,322.27
2022-11-30T21:46:06.906Z,231.43
2022-11-30T21:48:39.643Z,315.70
2022-11-30T21:51:18.309Z,276.27
2022-11-30T21:53:52.455Z,313.90
2022-11-30T21:56:22.983Z,404.67
2022-11-30T21:58:52.711Z,321.52
2022-11-30T22:01:26.869Z,315.60
2022-11-30T22:04:04.604Z,239.25
2022-11-30T22:06:59.463Z,251.82
2022-11-30T22:09:29.898Z,231.52
2022-11-30T22:15:42.332Z,278.83
2022-11-30T22:21:03.546Z,263.40
2022-11-30T22:23:35.873Z,298.27
2022-11-30T22:26:26.282Z,261.05
2022-11-30T22:28:56.677Z,241.02
2022-11-30T22:31:29.230Z,267.85
2022-11-30T22:34:00.336Z,225.05
2022-11-30T22:36:33.477Z,205.90
2022-11-30T22:39:04.112Z,229.00
2022-11-30T22:41:36.327Z,275.83
2022-11-30T22:44:05.658Z,239.38
2022-11-30T22:46:36.323Z,250.82
2022-11-30T22:49:09.611Z,228.23
2022-11-30T22:51:38.948Z,220.88
2022-11-30T22:54:08.701Z,231.27
2022-11-30T22:56:41.213Z,264.05
2022-11-30T22:59:25.819Z,217.75
2022-11-30T23:01:57.396Z,220.50
2022-11-30T23:04:27.885Z,277.00
2022-11-30T23:06:58.066Z,254.40
2022-11-30T23:09:27.982Z,245.55
2022-11-30T23:20:26.909Z,283.23
2022-11-30T23:22:55.811Z,294.10
2022-11-30T23:25:25.205Z,298.27
2022-11-30T23:27:54.302Z,253.23
2022-11-30T23:30:45.455Z,308.00
2022-11-30T23:33:14.168Z,278.15
2022-11-30T23:35:46.284Z,330.60
2022-11-30T23:38:15.167Z,272.05
2022-11-30T23:40:46.450Z,274.27
2022-11-30T23:43:15.173Z,290.42
2022-11-30T23:45:43.860Z,233.32
2022-11-30T23:48:12.605Z,340.90
2022-11-30T23:50:41.294Z,289.52
2022-11-30T23:53:12.266Z,265.38
2022-11-30T23:55:41.251Z,224.43
2022-11-30T23:58:09.802Z,269.63
